Hlavní strana
METAR-TAF:

METAR-TAF

Letiště :

Uppsala, Švédsko

zeměpisná šířka: 59-53N, zeměpisná délka: 017-36E, výška: 21 m

Aktuální stav počasí

Zpráva byla vytvořena před 50 minutami, v 23:20 UTC
Severoseverozápadní vítr 14 kt
Teplota 4°C
Vlhkost vzduchu 56%
Tlak 1025 hPa
Viditelnost 10 km a více

METAR: ESCM 212320Z AUTO 34014KT 9999 OVC110/// 04/M04 Q1025

Čas: 01:10 (00:10 UTC)

Předpověď počasí

Zpráva byla vytvořena před 9 hodinami a 45 minutami, v 14:25 UTC
Předpověď platná od 21 v 15 UTC do 21 v 21 UTC
Západní vítr 10 kt
Viditelnost 10 km a více
Oblačno až skoro zataženo ve výšce 2000 ft
Změna
od 21 v 15 UTC do 21 v 18 UTC
Severozápadní vítr 10 kt
Viditelnost 10 km a více
Žádná oblačnost pod 1500 m, nevyskytují se cumulonimby.

TAF: ESCM 211425Z 2115/2121 27010KT 9999 BKN020 BECMG 2115/2118 31010KT CAVOK RMK MIL

Stav a předpovědi počasí z více než 4 000 letišť (zprávy METAR a TAF).

Červené a žluté tečky na mapě představují dostupné meteorologické stanice.

Když kurzor umístíte na tečku, zobrazí se název stanice.

Pak kliknutím zobrazíte stav a předpověď počasí.

Chcete-li změnit mapu, kliknutím na zelené tlačítko se znaménkem +mapu přiblížíte, kliknutím na zelené tlačítko se znaménkem – mapu oddálíte a kliknutím na zelené šipky přejdete na sousední mapy.


METAR-TAF: